Mimoso do Sul, Brazil
Current Conditions -  °F | °C
As of 12:00 PM on Monday 24 Nov 2014 (Local Time) from SBCP Reporting Station
Broken Clouds Broken Clouds  
Wind Chill: 81°   Ceiling: 10000
Heat Index: 85°   Visibility: 6mi
Dew Point: 73°   Wind: 9mph
Humidity: 79%   Direction: 200°SSW
Pressure: 29.97"   Gusts: NA
Location:  21.06°S, 41.37°W
Report Text: SBCP 241400Z 20008KT 9999 SCT015 BKN100 27/23 Q1015
Loading
Personal Weather Stations






























Interactive Weather Map New forecast layout! Learn more

10-Day Weather Forecast

Advertisements
Track Severe Weather on mobile